RJNY(METAR)
06/27 01:00
METAR RJNY 261600Z 22003KT 9999 FEW020 SCT030 BKN040 24/19 Q1012 RMK
1CU020 3CU030 5SC040 A2989=
戻る
トップページへ戻る
IMOC Co,.Ltd.